Time;durP1;ratioP1;P1;durP2;ratioP2;P2;SDS_P1;SDS_P2;PMS_P1;PMS_P2;Temp;Humidity;BMP_temperature;BMP_pressure;BME280_temperature;BME280_humidity;BME280_pressure;Samples;Min_cycle;Max_cycle;Signal;HPM_P1;HPM_P2
2021/07/23 05:19:09;;;;;;;5.65;2.05;;;;;;;35.19;25.65;100165.78;1830067;76;24710;-72
2021/07/23 05:22:14;;;;;;;5.97;2.27;;;;;;;35.59;24.90;100168.30;1839714;76;28020;-70
2021/07/23 05:24:47;;;;;;;4.22;2.10;;;;;;;35.85;24.52;100161.77;1752528;80;21165;-71
2021/07/23 05:27:21;;;;;;;5.53;2.15;;;;;;;36.25;24.04;100159.55;1760351;80;21193;-69
2021/07/23 05:29:54;;;;;;;3.72;1.98;;;;;;;36.64;23.60;100164.36;1758657;79;21338;-72
2021/07/23 05:32:27;;;;;;;7.90;2.30;;;;;;;36.97;23.25;100173.91;1752953;80;21848;-66
2021/07/23 05:35:00;;;;;;;7.78;2.60;;;;;;;37.31;22.98;100173.86;1754864;79;21298;-69
2021/07/23 05:37:36;;;;;;;5.47;2.20;;;;;;;37.66;22.76;100172.89;1756201;79;21252;-72
2021/07/23 05:40:12;;;;;;;6.03;2.30;;;;;;;38.03;22.21;100178.37;1765047;79;21294;-69
2021/07/23 05:42:45;;;;;;;5.87;1.90;;;;;;;38.33;21.78;100171.42;1752361;80;21334;-72
2021/07/23 05:45:18;;;;;;;4.70;2.20;;;;;;;38.56;21.57;100161.68;1752060;80;21742;-74
2021/07/23 05:47:51;;;;;;;8.25;2.10;;;;;;;38.79;21.10;100172.13;1768159;79;21302;-72
2021/07/23 05:50:24;;;;;;;2.40;1.60;;;;;;;39.02;20.81;100166.70;1765414;79;21332;-70
2021/07/23 05:52:57;;;;;;;5.70;2.22;;;;;;;39.18;20.22;100172.47;1758854;80;21795;-72
2021/07/23 05:55:31;;;;;;;4.33;2.00;;;;;;;39.31;19.95;100172.84;1740042;80;21321;-74
2021/07/23 05:58:05;;;;;;;10.03;2.10;;;;;;;39.52;19.81;100168.78;1777205;79;21925;-72
2021/07/23 06:00:38;;;;;;;5.03;2.02;;;;;;;39.80;19.80;100176.78;1760053;80;21141;-73
2021/07/23 06:03:11;;;;;;;5.05;1.72;;;;;;;40.15;19.35;100169.95;1754673;80;21944;-78
2021/07/23 06:05:46;;;;;;;5.37;1.90;;;;;;;40.40;19.15;100170.08;1767197;80;21865;-71
2021/07/23 06:08:19;;;;;;;6.50;1.90;;;;;;;40.60;18.67;100172.84;1748458;80;21244;-72
2021/07/23 06:10:52;;;;;;;3.00;1.80;;;;;;;40.88;18.49;100174.44;1750442;80;21330;-72
2021/07/23 06:13:25;;;;;;;3.80;2.30;;;;;;;41.18;18.13;100173.70;1747703;80;21329;-73
2021/07/23 06:15:58;;;;;;;3.00;1.92;;;;;;;41.23;18.01;100174.27;1747781;80;22465;-75
2021/07/23 06:18:32;;;;;;;4.12;2.00;;;;;;;41.18;17.85;100175.86;1752462;80;22598;-74
2021/07/23 06:21:07;;;;;;;3.83;1.52;;;;;;;41.10;17.88;100172.66;1731675;81;21296;-72
2021/07/23 06:23:40;;;;;;;4.33;1.90;;;;;;;41.14;17.96;100174.14;1727149;81;21196;-72
2021/07/23 06:26:13;;;;;;;7.33;1.72;;;;;;;41.27;17.77;100175.77;1727530;81;21311;-72
2021/07/23 06:28:46;;;;;;;3.17;1.85;;;;;;;41.19;17.58;100180.22;1727293;81;21374;-74
2021/07/23 06:31:19;;;;;;;4.03;2.12;;;;;;;41.20;17.42;100175.53;1728137;81;21283;-72
2021/07/23 06:33:52;;;;;;;10.15;2.17;;;;;;;41.35;17.50;100177.06;1724497;81;21295;-73
2021/07/23 06:36:25;;;;;;;3.67;1.67;;;;;;;41.51;17.21;100175.81;1729809;81;21293;-76
2021/07/23 06:38:58;;;;;;;3.08;1.80;;;;;;;41.59;17.33;100184.50;1725905;81;21322;-74
2021/07/23 06:41:31;;;;;;;2.55;1.70;;;;;;;41.78;17.25;100177.06;1724482;81;21287;-73
2021/07/23 06:44:07;;;;;;;4.03;1.70;;;;;;;42.07;16.67;100180.91;1734012;80;21314;-73
2021/07/23 06:46:40;;;;;;;1.90;1.42;;;;;;;42.38;16.69;100178.33;1743607;80;21859;-74
2021/07/23 06:49:13;;;;;;;2.42;1.72;;;;;;;42.66;16.72;100175.59;1748955;81;21367;-74
2021/07/23 06:51:46;;;;;;;5.25;1.70;;;;;;;42.97;16.27;100174.90;1746360;80;21342;-74
2021/07/23 06:54:19;;;;;;;3.10;1.80;;;;;;;43.24;15.93;100182.27;1743196;80;21870;-77
2021/07/23 06:56:54;;;;;;;2.25;1.47;;;;;;;43.14;15.44;100183.60;1744400;80;21344;-75
2021/07/23 06:59:27;;;;;;;3.70;1.72;;;;;;;42.86;16.04;100184.22;1737096;80;21263;-76
2021/07/23 07:02:00;;;;;;;4.83;1.47;;;;;;;43.03;16.27;100192.18;1740992;81;22810;-74
2021/07/23 07:04:33;;;;;;;4.40;1.50;;;;;;;43.34;15.75;100185.91;1736631;81;21183;-75
2021/07/23 07:07:07;;;;;;;2.65;1.45;;;;;;;43.55;15.18;100190.55;1740852;81;21833;-74
2021/07/23 07:09:42;;;;;;;4.85;1.50;;;;;;;43.76;14.53;100186.17;1744143;81;21296;-76
2021/07/23 07:12:15;;;;;;;5.03;1.65;;;;;;;43.71;14.74;100185.84;1724123;81;21353;-75
2021/07/23 07:14:51;;;;;;;3.83;1.60;;;;;;;43.59;14.95;100180.40;1751755;80;21314;-74
2021/07/23 07:17:28;;;;;;;7.20;2.00;;;;;;;43.67;14.92;100193.20;1752909;80;22408;-77
2021/07/23 07:19:58;;;;;;;2.75;1.70;;;;;;;43.93;14.73;100191.26;1735559;80;21331;-78
2021/07/23 07:22:31;;;;;;;4.08;1.90;;;;;;;44.10;14.51;100189.50;1742868;81;21281;-75
2021/07/23 07:25:07;;;;;;;5.58;1.87;;;;;;;44.13;14.47;100183.27;1739992;81;21722;-76
2021/07/23 07:27:40;;;;;;;2.17;1.60;;;;;;;44.32;14.27;100192.94;1744987;80;21335;-75
2021/07/23 07:30:13;;;;;;;2.80;1.40;;;;;;;44.62;14.24;100180.16;1744598;81;21251;-74
2021/07/23 07:32:46;;;;;;;3.98;1.60;;;;;;;44.97;13.62;100184.78;1741277;81;22148;-75
2021/07/23 07:35:19;;;;;;;2.20;1.60;;;;;;;45.09;13.21;100190.13;1734643;81;22553;-76
2021/07/23 07:37:52;;;;;;;4.12;1.80;;;;;;;45.10;13.02;100186.17;1743572;81;21314;-75
2021/07/23 07:40:25;;;;;;;4.58;1.60;;;;;;;45.20;13.12;100189.71;1747770;81;21286;-75
2021/07/23 07:42:59;;;;;;;5.83;1.87;;;;;;;45.15;12.74;100193.59;1741054;81;21258;-72
2021/07/23 07:45:32;;;;;;;5.70;2.00;;;;;;;44.32;13.66;100196.27;1732351;81;21187;-71
2021/07/23 07:48:06;;;;;;;3.40;1.60;;;;;;;43.62;14.21;100193.48;1722596;81;21269;-71
2021/07/23 07:50:39;;;;;;;2.92;1.55;;;;;;;43.49;13.60;100201.05;1735749;81;21287;-71
2021/07/23 07:53:13;;;;;;;5.28;2.00;;;;;;;43.38;14.16;100197.23;1737485;81;21987;-75
2021/07/23 07:55:47;;;;;;;1.70;1.40;;;;;;;43.57;13.62;100188.84;1726180;81;22514;-75
2021/07/23 07:58:20;;;;;;;3.67;1.80;;;;;;;43.65;13.65;100192.77;1731605;81;21153;-75
2021/07/23 08:00:53;;;;;;;4.92;1.42;;;;;;;43.45;13.42;100188.33;1733414;81;21196;-72
2021/07/23 08:03:26;;;;;;;1.98;1.55;;;;;;;43.55;13.37;100182.28;1734170;81;21852;-70
2021/07/23 08:06:03;;;;;;;4.85;2.12;;;;;;;43.02;14.14;100185.66;1743341;81;22006;-73
2021/07/23 08:08:34;;;;;;;2.92;1.62;;;;;;;42.19;15.17;100201.55;1731719;81;21807;-75
2021/07/23 08:11:08;;;;;;;2.65;1.60;;;;;;;41.46;15.30;100196.06;1737600;81;21378;-76
2021/07/23 08:13:41;;;;;;;4.75;1.80;;;;;;;41.17;15.45;100192.13;1731170;81;21323;-73
2021/07/23 08:16:14;;;;;;;4.50;1.50;;;;;;;41.21;15.38;100191.67;1739864;81;21877;-71
2021/07/23 08:18:48;;;;;;;2.85;1.40;;;;;;;40.89;15.45;100195.27;1740437;80;21314;-74
2021/07/23 08:21:21;;;;;;;4.78;1.27;;;;;;;40.82;15.15;100189.47;1738224;81;21282;-72
2021/07/23 08:23:55;;;;;;;2.95;1.47;;;;;;;40.32;15.67;100193.14;1737681;81;21229;-73
2021/07/23 08:26:28;;;;;;;4.28;1.40;;;;;;;39.78;15.83;100194.70;1735103;81;21319;-73
2021/07/23 08:29:01;;;;;;;3.92;1.70;;;;;;;38.94;16.33;100193.53;1737587;81;21204;-74
2021/07/23 08:31:35;;;;;;;4.40;1.90;;;;;;;38.33;16.77;100192.52;1732038;81;21517;-70
2021/07/23 08:34:08;;;;;;;1.50;1.40;;;;;;;38.27;16.92;100187.73;1732219;81;21839;-70
2021/07/23 08:36:41;;;;;;;3.55;1.87;;;;;;;38.71;16.61;100183.08;1730919;81;21933;-73
2021/07/23 08:39:15;;;;;;;5.97;2.85;;;;;;;39.35;16.37;100188.84;1734875;81;21354;-69
2021/07/23 08:41:48;;;;;;;4.05;2.22;;;;;;;39.75;15.87;100183.02;1732552;81;21267;-68
2021/07/23 08:44:22;;;;;;;3.30;1.80;;;;;;;39.58;15.63;100183.89;1740814;81;21331;-69
2021/07/23 08:46:55;;;;;;;2.27;1.75;;;;;;;39.27;15.92;100182.81;1746195;81;22529;-68
2021/07/23 08:49:28;;;;;;;4.78;1.75;;;;;;;38.79;16.34;100180.91;1735188;81;21334;-70
2021/07/23 08:52:04;;;;;;;2.33;1.50;;;;;;;38.55;16.19;100186.86;1738297;81;21326;-71
2021/07/23 08:54:37;;;;;;;2.77;1.20;;;;;;;38.07;16.76;100184.83;1724711;81;21274;-71
2021/07/23 08:57:11;;;;;;;4.45;1.70;;;;;;;37.80;16.83;100187.23;1729913;81;21307;-74
2021/07/23 08:59:44;;;;;;;5.35;2.33;;;;;;;37.21;17.20;100199.52;1745731;80;21307;-73
2021/07/23 09:02:18;;;;;;;5.67;3.15;;;;;;;36.42;17.75;100191.61;1753984;80;21171;-71
2021/07/23 09:04:54;;;;;;;6.05;2.52;;;;;;;35.60;18.85;100198.52;1725565;82;21961;-70
2021/07/23 09:07:29;;;;;;;4.37;1.95;;;;;;;34.95;19.60;100199.11;1734860;81;21346;-69
2021/07/23 09:10:06;;;;;;;4.33;1.95;;;;;;;34.67;19.91;100189.24;1761698;80;22161;-69
2021/07/23 09:12:56;;;;;;;4.00;1.98;;;;;;;34.60;20.35;100196.97;1731032;81;21358;-70
2021/07/23 09:15:43;;;;;;;4.33;1.75;;;;;;;34.23;20.46;100195.58;1715886;82;21252;-70
2021/07/23 09:18:28;;;;;;;;;;;;;;;33.95;20.62;100193.21;1777913;80;21251;-71
2021/07/23 09:21:03;;;;;;;4.35;1.62;;;;;;;33.43;21.45;100191.91;1734231;80;20286;-70
2021/07/23 09:23:39;;;;;;;3.72;2.08;;;;;;;33.00;21.74;100189.58;1743199;81;22020;-71
2021/07/23 09:26:16;;;;;;;3.45;1.52;;;;;;;32.58;22.20;100194.24;1717639;82;21279;-73
2021/07/23 09:28:49;;;;;;;2.70;1.42;;;;;;;32.52;22.54;100183.19;1739153;81;22293;-74
2021/07/23 09:31:27;;;;;;;2.40;2.20;;;;;;;32.66;22.50;100185.52;1755725;80;21417;-69
2021/07/23 09:34:00;;;;;;;2.72;1.35;;;;;;;33.09;22.18;100191.42;1750170;80;21335;-70
2021/07/23 09:36:34;;;;;;;1.85;1.52;;;;;;;33.57;21.35;100187.43;1765228;80;21294;-72
2021/07/23 09:39:11;;;;;;;2.47;1.40;;;;;;;33.63;20.50;100174.05;1755793;80;21331;-73
2021/07/23 09:41:44;;;;;;;3.08;1.60;;;;;;;33.20;20.87;100185.34;1744772;81;21309;-71
2021/07/23 09:44:18;;;;;;;2.83;1.40;;;;;;;32.59;21.15;100181.78;1749929;80;21271;-69
2021/07/23 09:46:51;;;;;;;2.67;1.20;;;;;;;32.22;21.95;100173.88;1717424;81;21283;-71
2021/07/23 09:49:28;;;;;;;;;;;;;;;32.16;22.37;100179.05;1758454;80;21326;-69
2021/07/23 09:52:07;;;;;;;3.45;1.50;;;;;;;32.23;22.39;100172.77;1738227;80;20233;-68
2021/07/23 09:54:38;;;;;;;2.77;1.60;;;;;;;32.38;22.22;100172.69;1724099;82;21203;-70
2021/07/23 09:57:11;;;;;;;3.30;1.45;;;;;;;32.63;21.84;100175.77;1728040;81;21209;-70
2021/07/23 10:00:03;;;;;;;4.33;1.32;;;;;;;32.75;22.01;100172.97;1737060;81;21329;-68
2021/07/23 10:02:35;;;;;;;6.45;1.40;;;;;;;32.79;21.61;100179.47;1728930;81;21358;-72
2021/07/23 10:05:09;;;;;;;2.08;1.37;;;;;;;32.69;20.94;100175.48;1728244;81;21318;-73
2021/07/23 10:07:53;;;;;;;;;;;;;;;32.55;21.45;100172.58;1765203;80;21287;-68
2021/07/23 10:10:25;;;;;;;;;;;;;;;32.44;22.11;100175.61;1767231;80;20787;-69
2021/07/23 10:12:58;;;;;;;7.90;1.40;;;;;;;32.20;23.15;100170.08;1765515;80;20650;-69
2021/07/23 10:15:30;;;;;;;;;;;;;;;32.01;23.35;100166.39;1735386;81;21408;-71
2021/07/23 10:18:05;;;;;;;7.92;1.60;;;;;;;31.80;23.70;100173.78;1741632;81;21339;-71
2021/07/23 10:20:39;;;;;;;2.67;1.47;;;;;;;31.59;24.03;100177.65;1704168;81;21883;-70
2021/07/23 10:23:12;;;;;;;4.65;1.72;;;;;;;31.47;24.09;100168.21;1711775;81;21302;-70
2021/07/23 10:25:49;;;;;;;3.37;1.50;;;;;;;31.45;24.29;100165.79;1700163;81;21314;-68
2021/07/23 10:28:46;;;;;;;6.17;1.75;;;;;;;31.53;24.28;100163.03;1736073;81;21334;-68
2021/07/23 10:31:33;;;;;;;2.08;1.62;;;;;;;31.68;24.22;100167.87;1733641;81;21350;-69
2021/07/23 10:34:06;;;;;;;6.35;1.82;;;;;;;31.91;24.09;100159.63;1733018;81;21204;-69
2021/07/23 10:36:41;;;;;;;4.78;1.42;;;;;;;32.06;23.72;100162.84;1735710;81;21928;-67
2021/07/23 10:39:19;;;;;;;4.60;1.55;;;;;;;32.08;23.55;100164.72;1726884;81;21227;-67
2021/07/23 10:41:57;;;;;;;2.15;1.52;;;;;;;32.17;23.20;100167.14;1741077;81;21276;-68
2021/07/23 10:44:37;;;;;;;6.35;1.57;;;;;;;32.28;22.52;100158.66;1734311;81;21203;-67
2021/07/23 10:47:10;;;;;;;3.87;1.52;;;;;;;32.28;22.28;100161.91;1718838;81;21778;-69
2021/07/23 10:49:47;;;;;;;3.40;1.42;;;;;;;32.19;22.86;100161.70;1765013;80;21184;-67
2021/07/23 10:52:35;;;;;;;3.65;1.37;;;;;;;32.11;23.21;100154.16;1747040;81;21906;-68
2021/07/23 10:55:12;;;;;;;3.45;1.77;;;;;;;32.05;22.91;100159.89;1723934;81;21321;-69
2021/07/23 10:57:45;;;;;;;6.53;2.10;;;;;;;31.78;23.01;100154.30;1727290;81;21280;-73
2021/07/23 11:00:17;;;;;;;;;;;;;;;31.58;23.77;100152.20;1761716;80;21282;-69
2021/07/23 11:02:50;;;;;;;5.03;1.35;;;;;;;31.55;23.60;100154.91;1681638;82;20281;-70
2021/07/23 11:05:24;;;;;;;3.02;1.37;;;;;;;31.55;23.72;100148.15;1728309;81;21315;-68
2021/07/23 11:07:57;;;;;;;8.85;3.50;;;;;;;31.61;23.64;100153.83;1680512;81;21897;-70
2021/07/23 11:10:31;;;;;;;8.73;2.20;;;;;;;31.65;23.38;100144.59;1764009;80;21183;-72
2021/07/23 11:13:10;;;;;;;4.15;1.55;;;;;;;31.62;23.76;100137.05;1732288;81;21192;-68
2021/07/23 11:15:43;;;;;;;6.60;1.40;;;;;;;31.55;24.03;100149.50;1744544;80;21347;-68
2021/07/23 11:18:17;;;;;;;;;;;;;;;31.50;24.05;100149.55;1746400;80;21361;-73
2021/07/23 11:20:50;;;;;;;5.17;1.52;;;;;;;31.46;23.93;100147.64;1731152;81;20293;-69
2021/07/23 11:23:27;;;;;;;6.70;1.50;;;;;;;31.39;23.89;100149.25;1682290;82;21311;-70
2021/07/23 11:26:01;;;;;;;1.52;1.10;;;;;;;31.40;24.08;100148.19;1705889;81;21313;-69
2021/07/23 11:28:50;;;;;;;1.75;1.35;;;;;;;31.52;24.14;100141.14;1748586;80;21355;-69
2021/07/23 11:31:33;;;;;;;1.47;1.27;;;;;;;31.64;24.05;100135.69;1727435;82;21315;-68
2021/07/23 11:34:30;;;;;;;5.37;1.30;;;;;;;31.79;23.80;100130.72;1748107;81;21214;-69
2021/07/23 11:37:25;;;;;;;3.58;1.45;;;;;;;31.96;23.20;100125.77;1759079;80;21298;-68
2021/07/23 11:40:02;;;;;;;2.60;1.50;;;;;;;32.08;23.54;100133.58;1734705;80;21344;-67
2021/07/23 11:42:42;;;;;;;3.90;1.40;;;;;;;31.86;23.59;100138.81;1721108;81;21363;-65
2021/07/23 11:45:15;;;;;;;3.75;1.40;;;;;;;31.52;24.31;100139.25;1730186;81;21120;-65
2021/07/23 11:47:50;;;;;;;4.95;1.70;;;;;;;31.21;24.57;100133.09;1735735;81;21862;-69
2021/07/23 11:50:27;;;;;;;2.98;1.60;;;;;;;30.90;24.69;100137.46;1758586;80;21926;-68
2021/07/23 11:53:01;;;;;;;7.37;1.80;;;;;;;30.62;25.00;100136.07;1748702;80;21162;-69
2021/07/23 11:55:44;;;;;;;5.80;1.80;;;;;;;30.49;25.20;100137.44;1738777;81;21302;-69
2021/07/23 11:58:29;;;;;;;4.78;1.10;;;;;;;30.42;25.19;100130.14;1736743;81;21317;-69
2021/07/23 12:01:01;;;;;;;4.50;1.40;;;;;;;30.44;25.25;100130.68;1729660;81;21910;-67
2021/07/23 12:03:34;;;;;;;12.75;1.70;;;;;;;30.50;25.11;100127.42;1739533;80;21204;-67
2021/07/23 12:06:12;;;;;;;11.93;1.98;;;;;;;30.54;25.15;100127.17;1731389;81;21933;-70
2021/07/23 12:08:50;;;;;;;6.50;1.85;;;;;;;30.57;25.19;100132.05;1741370;80;21867;-71
2021/07/23 12:11:23;;;;;;;4.85;1.30;;;;;;;30.58;25.38;100133.65;1741535;81;21886;-70
2021/07/23 12:13:57;;;;;;;8.13;1.62;;;;;;;30.60;25.46;100124.73;1734530;81;21847;-68
2021/07/23 12:16:29;;;;;;;;;;;;;;;30.51;25.54;100129.88;1748684;81;21346;-69
2021/07/23 12:19:08;;;;;;;3.90;1.75;;;;;;;30.30;25.55;100130.09;1739293;80;20325;-67
2021/07/23 12:21:40;;;;;;;5.62;1.80;;;;;;;30.04;26.15;100127.06;1738431;81;21339;-69
2021/07/23 12:24:13;;;;;;;8.68;1.82;;;;;;;29.83;26.38;100128.34;1737986;81;21295;-69
2021/07/23 12:26:48;;;;;;;5.25;1.72;;;;;;;29.72;26.71;100122.62;1736484;81;21300;-70
2021/07/23 12:29:23;;;;;;;5.55;1.52;;;;;;;29.70;27.09;100126.13;1729256;81;21274;-70
2021/07/23 12:32:22;;;;;;;;;;;;;;;29.64;27.35;100120.42;1729810;81;21136;-68
2021/07/23 12:34:59;;;;;;;5.58;1.30;;;;;;;29.52;27.16;100124.44;1647837;86;20330;-69
2021/07/23 12:37:33;;;;;;;3.75;1.55;;;;;;;29.32;27.09;100125.95;1712667;81;21294;-69
2021/07/23 12:40:07;;;;;;;8.63;1.55;;;;;;;29.16;27.71;100122.84;1741332;81;21315;-69
2021/07/23 12:42:41;;;;;;;3.98;1.40;;;;;;;29.08;27.73;100126.58;1728907;81;21334;-66
2021/07/23 12:45:32;;;;;;;3.35;1.57;;;;;;;28.97;27.62;100128.37;1731927;81;21287;-65
2021/07/23 12:48:14;;;;;;;3.30;1.65;;;;;;;28.94;27.66;100125.41;1742069;81;21386;-66
2021/07/23 12:51:02;;;;;;;7.03;1.50;;;;;;;29.02;27.03;100119.55;1730982;82;21374;-65
2021/07/23 12:53:36;;;;;;;7.45;1.50;;;;;;;29.17;27.07;100118.27;1731348;81;21232;-64
2021/07/23 12:56:10;;;;;;;9.20;1.52;;;;;;;29.36;26.87;100122.18;1734813;81;21218;-65
2021/07/23 12:58:47;;;;;;;2.50;1.45;;;;;;;29.55;27.03;100127.40;1726027;81;21318;-65
2021/07/23 13:01:20;;;;;;;11.93;1.60;;;;;;;29.70;26.68;100126.13;1710884;83;21332;-64
2021/07/23 13:03:55;;;;;;;5.00;1.62;;;;;;;29.83;26.51;100126.20;1718486;81;21188;-64
2021/07/23 13:06:28;;;;;;;1.85;1.25;;;;;;;29.93;26.12;100118.12;1712595;82;21939;-64
2021/07/23 13:09:00;;;;;;;3.17;1.60;;;;;;;30.01;26.00;100125.70;1714205;81;21283;-64
2021/07/23 13:11:35;;;;;;;2.35;1.60;;;;;;;30.08;25.79;100122.22;1719704;82;21311;-64
2021/07/23 13:14:08;;;;;;;4.15;1.67;;;;;;;30.08;25.80;100123.56;1712992;82;21326;-64
2021/07/23 13:16:40;;;;;;;;;;;;;;;30.08;25.76;100122.75;1719329;81;21365;-65
2021/07/23 13:19:15;;;;;;;9.05;3.22;;;;;;;30.05;26.11;100121.39;1715456;82;20265;-65
2021/07/23 13:21:49;;;;;;;7.22;2.85;;;;;;;29.97;25.66;100118.67;1727455;82;21334;-64
2021/07/23 13:24:22;;;;;;;7.58;2.05;;;;;;;29.92;25.49;100116.52;1725888;82;21295;-64
2021/07/23 13:26:55;;;;;;;;;;;;;;;29.88;25.60;100116.75;1722711;82;21227;-64
2021/07/23 13:29:28;;;;;;;6.75;1.70;;;;;;;29.85;26.23;100122.14;1714695;82;20179;-63
2021/07/23 13:32:01;;;;;;;4.80;1.65;;;;;;;29.82;26.04;100120.52;1719274;82;21307;-64
2021/07/23 13:34:35;;;;;;;4.25;1.35;;;;;;;29.80;26.25;100120.80;1723600;82;21295;-63
2021/07/23 13:37:17;;;;;;;3.35;1.25;;;;;;;29.78;26.45;100122.92;1722986;82;21295;-64
2021/07/23 13:39:59;;;;;;;6.45;1.50;;;;;;;29.76;26.15;100118.34;1714813;82;21158;-63
2021/07/23 13:42:32;;;;;;;2.00;1.30;;;;;;;29.74;25.68;100120.46;1714926;82;21290;-63
2021/07/23 13:45:07;;;;;;;1.77;1.30;;;;;;;29.71;25.71;100118.28;1717432;82;21227;-64
2021/07/23 13:47:41;;;;;;;9.98;1.70;;;;;;;29.67;26.06;100120.43;1715217;83;21880;-63
2021/07/23 13:50:14;;;;;;;6.58;1.57;;;;;;;29.63;26.27;100116.64;1714905;81;21345;-64
2021/07/23 13:52:47;;;;;;;11.55;1.40;;;;;;;29.53;26.56;100129.55;1721648;82;21195;-63
2021/07/23 13:55:20;;;;;;;4.22;2.15;;;;;;;29.40;26.91;100122.48;1712072;81;21191;-64
2021/07/23 13:57:53;;;;;;;5.12;1.30;;;;;;;29.32;26.84;100127.83;1722104;82;21291;-64
2021/07/23 14:00:27;;;;;;;1.60;1.50;;;;;;;29.21;26.92;100126.13;1715115;82;21375;-64
2021/07/23 14:03:00;;;;;;;;;;;;;;;29.09;26.93;100131.70;1722671;82;21191;-65
2021/07/23 14:05:33;;;;;;;4.22;1.30;;;;;;;28.97;26.85;100137.81;1717588;82;20230;-64
2021/07/23 14:08:07;;;;;;;1.32;1.10;;;;;;;28.85;27.06;100139.09;1712898;81;21318;-64
2021/07/23 14:10:41;;;;;;;11.65;1.50;;;;;;;28.75;27.26;100136.30;1720575;81;21310;-65
2021/07/23 14:13:14;;;;;;;2.75;1.50;;;;;;;28.66;27.26;100136.77;1715170;83;21294;-65
2021/07/23 14:15:46;;;;;;;;;;;;;;;28.57;27.28;100141.50;1722257;81;21175;-65
2021/07/23 14:18:21;;;;;;;4.85;1.20;;;;;;;28.49;27.63;100133.91;1712994;82;20287;-64
2021/07/23 14:20:55;;;;;;;4.90;1.25;;;;;;;28.40;27.48;100139.45;1723355;81;21318;-64
2021/07/23 14:23:28;;;;;;;3.17;1.25;;;;;;;28.32;27.74;100132.67;1716264;83;21167;-65
2021/07/23 14:26:02;;;;;;;5.75;1.50;;;;;;;28.25;27.56;100135.29;1725220;82;21187;-65
2021/07/23 14:28:35;;;;;;;2.12;1.12;;;;;;;28.17;27.86;100142.47;1721445;82;21235;-65
2021/07/23 14:31:08;;;;;;;;;;;;;;;28.12;27.97;100137.02;1717222;82;21298;-65
2021/07/23 14:33:41;;;;;;;4.53;1.10;;;;;;;28.02;27.89;100138.55;1714906;82;20227;-65
2021/07/23 14:36:15;;;;;;;1.82;1.05;;;;;;;27.92;27.89;100142.95;1723966;82;21232;-64
2021/07/23 14:38:49;;;;;;;3.52;1.10;;;;;;;27.84;28.04;100138.86;1721594;82;21210;-65
2021/07/23 14:41:22;;;;;;;3.65;1.05;;;;;;;27.77;28.22;100140.11;1716253;82;21289;-64
2021/07/23 14:43:58;;;;;;;3.08;1.32;;;;;;;27.69;28.75;100141.88;1712451;82;21478;-64
2021/07/23 14:46:30;;;;;;;5.62;0.90;;;;;;;27.61;29.34;100140.44;1718963;82;21188;-64
2021/07/23 14:49:03;;;;;;;6.47;1.20;;;;;;;27.53;29.23;100144.10;1713656;82;21298;-64
2021/07/23 14:51:36;;;;;;;5.87;0.93;;;;;;;27.43;29.45;100144.78;1719490;82;21318;-64
2021/07/23 14:54:09;;;;;;;3.37;1.20;;;;;;;27.37;30.05;100147.92;1718544;82;21171;-64
2021/07/23 14:56:43;;;;;;;2.75;0.90;;;;;;;27.30;30.16;100145.09;1719150;82;21345;-64
2021/07/23 14:59:16;;;;;;;3.08;0.90;;;;;;;27.23;30.00;100147.14;1712937;82;21363;-65
2021/07/23 15:01:49;;;;;;;6.95;1.00;;;;;;;27.14;29.61;100146.76;1714457;81;21171;-64
2021/07/23 15:04:22;;;;;;;2.52;0.85;;;;;;;27.05;29.70;100148.24;1716313;83;21290;-64
2021/07/23 15:06:56;;;;;;;4.62;1.15;;;;;;;26.98;29.99;100152.16;1723760;82;21220;-64
2021/07/23 15:09:31;;;;;;;2.65;0.95;;;;;;;26.90;30.37;100156.05;1717671;82;21290;-65
2021/07/23 15:12:04;;;;;;;10.58;1.40;;;;;;;26.83;30.38;100158.62;1712919;81;21188;-65
2021/07/23 15:14:36;;;;;;;;;;;;;;;26.76;30.33;100162.00;1721697;82;21199;-64
2021/07/23 15:17:10;;;;;;;7.25;1.05;;;;;;;26.68;30.43;100164.00;1709806;82;20310;-65
2021/07/23 15:19:48;;;;;;;12.75;1.40;;;;;;;26.53;30.83;100169.65;1723984;83;21301;-64
2021/07/23 15:22:23;;;;;;;12.10;2.45;;;;;;;26.53;30.83;100169.65;1717360;82;21301;-64
2021/07/23 15:24:55;;;;;;;5.95;0.80;;;;;;;26.44;31.29;100175.91;1721629;81;21221;-65
2021/07/23 15:27:30;;;;;;;3.67;2.08;;;;;;;26.35;31.05;100173.34;1712833;82;21287;-65
2021/07/23 15:30:05;;;;;;;6.78;1.20;;;;;;;26.29;30.93;100173.50;1711810;82;21158;-65
2021/07/23 15:32:38;;;;;;;2.75;1.30;;;;;;;26.21;30.95;100176.55;1704596;82;21203;-64
2021/07/23 15:35:14;;;;;;;3.80;0.70;;;;;;;26.14;31.01;100178.05;1713423;82;21420;-65
2021/07/23 15:37:47;;;;;;;5.62;1.20;;;;;;;26.09;31.30;100177.91;1714816;83;21226;-65
2021/07/23 15:40:20;;;;;;;7.00;1.45;;;;;;;26.02;31.25;100184.77;1717605;81;21269;-65
2021/07/23 15:42:53;;;;;;;4.37;1.17;;;;;;;25.95;31.53;100186.77;1715376;82;21270;-65
2021/07/23 15:45:27;;;;;;;8.05;1.05;;;;;;;25.90;31.85;100185.32;1710693;81;21350;-65
2021/07/23 15:48:00;;;;;;;3.80;0.90;;;;;;;25.82;32.13;100183.00;1714796;82;21299;-66
2021/07/23 15:50:33;;;;;;;3.50;0.78;;;;;;;25.76;32.58;100189.32;1717481;82;21203;-65
2021/07/23 15:53:06;;;;;;;3.12;0.90;;;;;;;25.69;32.67;100198.54;1713101;81;21303;-65
2021/07/23 15:55:39;;;;;;;3.05;1.10;;;;;;;25.62;32.73;100197.33;1717541;83;21295;-65
2021/07/23 15:58:13;;;;;;;4.53;1.70;;;;;;;25.55;33.00;100200.66;1714801;81;21275;-65
2021/07/23 16:00:55;;;;;;;12.70;1.57;;;;;;;25.48;33.22;100203.17;1719703;82;21294;-65
2021/07/23 16:03:28;;;;;;;8.95;2.20;;;;;;;25.40;33.53;100198.42;1718507;82;21282;-66
2021/07/23 16:06:01;;;;;;;22.73;12.95;;;;;;;25.33;33.80;100210.30;1713015;81;21862;-65
2021/07/23 16:08:34;;;;;;;8.95;2.70;;;;;;;25.27;33.92;100209.87;1725795;81;21351;-64
2021/07/23 16:11:07;;;;;;;4.47;1.60;;;;;;;25.19;34.18;100215.59;1712943;82;21426;-64
2021/07/23 16:13:41;;;;;;;6.80;1.55;;;;;;;25.11;34.57;100214.59;1715228;82;21238;-64
2021/07/23 16:16:15;;;;;;;4.60;1.30;;;;;;;25.05;34.84;100220.89;1716202;82;21164;-64
2021/07/23 16:18:49;;;;;;;3.12;1.25;;;;;;;24.95;34.91;100217.95;1720699;82;21258;-65
2021/07/23 16:21:28;;;;;;;3.80;1.22;;;;;;;24.87;34.97;100219.09;1719689;82;21317;-64
2021/07/23 16:24:05;;;;;;;2.65;1.15;;;;;;;24.79;35.10;100223.98;1717088;83;21192;-64
2021/07/23 16:26:44;;;;;;;4.15;1.02;;;;;;;24.69;35.17;100219.14;1720336;81;21291;-65
2021/07/23 16:29:17;;;;;;;7.12;1.10;;;;;;;24.60;35.31;100225.84;1717896;82;21289;-65
2021/07/23 16:31:51;;;;;;;7.17;1.37;;;;;;;24.50;35.44;100225.08;1718418;82;21199;-65
2021/07/23 16:34:24;;;;;;;5.30;1.15;;;;;;;24.42;35.60;100228.58;1715195;82;21341;-65
2021/07/23 16:36:57;;;;;;;3.10;1.47;;;;;;;24.33;35.85;100227.27;1711015;81;21278;-66
2021/07/23 16:39:30;;;;;;;5.35;1.15;;;;;;;24.23;36.08;100230.98;1719731;81;21287;-66
2021/07/23 16:42:04;;;;;;;6.15;1.55;;;;;;;24.15;36.22;100230.77;1716557;82;21342;-65
2021/07/23 16:44:37;;;;;;;3.98;2.22;;;;;;;24.05;36.37;100231.27;1718904;81;21299;-67
2021/07/23 16:47:10;;;;;;;6.70;2.30;;;;;;;23.94;36.52;100238.71;1718950;81;21291;-67
2021/07/23 16:49:44;;;;;;;9.55;2.52;;;;;;;23.84;36.71;100237.06;1715866;82;21290;-67
2021/07/23 16:52:17;;;;;;;12.15;2.58;;;;;;;23.75;36.89;100242.42;1721222;82;21303;-65
2021/07/23 16:54:50;;;;;;;11.73;2.60;;;;;;;23.64;37.11;100241.82;1715137;81;21282;-64
2021/07/23 16:57:24;;;;;;;13.80;4.50;;;;;;;23.54;37.44;100244.69;1713458;82;21283;-65
2021/07/23 16:59:57;;;;;;;19.35;8.45;;;;;;;23.44;37.87;100246.52;1722834;82;21191;-65
2021/07/23 17:02:30;;;;;;;35.17;15.17;;;;;;;23.33;38.12;100244.55;1713159;83;21330;-65
2021/07/23 17:05:06;;;;;;;45.70;18.65;;;;;;;23.22;38.39;100255.41;1722977;82;21291;-65
2021/07/23 17:07:38;;;;;;;39.75;16.73;;;;;;;23.12;38.71;100255.62;1714822;82;21289;-65
2021/07/23 17:10:15;;;;;;;41.28;16.25;;;;;;;23.00;39.11;100261.35;1714857;82;21195;-65
2021/07/23 17:12:48;;;;;;;36.10;15.25;;;;;;;22.88;39.42;100259.86;1715167;81;21253;-65
2021/07/23 17:15:21;;;;;;;32.17;12.98;;;;;;;22.76;39.69;100262.41;1714819;82;21194;-67
2021/07/23 17:17:55;;;;;;;42.23;12.37;;;;;;;22.66;40.08;100262.59;1724657;82;21299;-67
2021/07/23 17:20:29;;;;;;;22.73;9.08;;;;;;;22.53;40.36;100270.62;1711650;82;21302;-68